createdAt,value
2023-04-19T00:00:58.152Z,9.2236
2023-04-19T00:01:59.624Z,9.1454
2023-04-19T00:03:01.332Z,9.1684
2023-04-19T00:04:03.060Z,9.0953
2023-04-19T00:05:05.351Z,9.1470
2023-04-19T00:06:07.097Z,9.1492
2023-04-19T00:07:08.478Z,9.1156
2023-04-19T00:08:09.938Z,9.1388
2023-04-19T00:09:11.304Z,9.2225
2023-04-19T00:10:12.701Z,9.1896
2023-04-19T00:11:14.092Z,9.2087
2023-04-19T00:12:15.476Z,9.2693
2023-04-19T00:13:16.875Z,9.2721
2023-04-19T00:14:18.389Z,9.2642
2023-04-19T00:15:19.918Z,9.1125
2023-04-19T00:16:21.389Z,9.0627
2023-04-19T00:17:22.842Z,9.1108
2023-04-19T00:18:24.329Z,9.0883
2023-04-19T00:19:25.749Z,9.0729
2023-04-19T00:20:27.408Z,9.1266
2023-04-19T00:21:29.080Z,9.0911
2023-04-19T00:22:30.526Z,9.1211
2023-04-19T00:23:31.997Z,9.2302
2023-04-19T00:24:33.436Z,9.1427
2023-04-19T00:25:34.890Z,9.1041
2023-04-19T00:26:36.282Z,9.0321
2023-04-19T00:27:37.638Z,9.0163
2023-04-19T00:28:39.034Z,9.0108
2023-04-19T00:29:40.422Z,9.0922
2023-04-19T00:30:41.855Z,9.3324
2023-04-19T00:31:43.255Z,9.3009
2023-04-19T00:32:44.674Z,9.1053
2023-04-19T00:33:46.027Z,9.1211
2023-04-19T00:34:47.414Z,9.0139
2023-04-19T00:35:48.753Z,9.0674
2023-04-19T00:36:50.144Z,9.0439
2023-04-19T00:37:51.548Z,9.0456
2023-04-19T00:38:52.959Z,9.0175
2023-04-19T00:39:54.344Z,8.9545
2023-04-19T00:40:55.730Z,9.0400
2023-04-19T00:41:57.072Z,9.0245
2023-04-19T00:42:58.478Z,9.0559
2023-04-19T00:43:59.841Z,9.0852
2023-04-19T00:45:01.409Z,9.0752
2023-04-19T00:46:02.838Z,9.1255
2023-04-19T00:47:04.226Z,9.0969
2023-04-19T00:48:05.865Z,9.2171
2023-04-19T00:49:07.213Z,9.1478
2023-04-19T00:50:08.610Z,9.1908
2023-04-19T00:51:09.983Z,9.1366
2023-04-19T00:52:11.400Z,9.2230
2023-04-19T00:53:12.801Z,9.2728
2023-04-19T00:54:14.443Z,9.2788
2023-04-19T00:55:16.298Z,9.1366
2023-04-19T00:56:17.697Z,9.0920
2023-04-19T00:57:19.060Z,9.1591
2023-04-19T00:58:20.412Z,9.1250
2023-04-19T00:59:21.756Z,9.0673
2023-04-19T01:00:23.145Z,9.0504
2023-04-19T01:01:24.510Z,9.0506
2023-04-19T01:02:25.930Z,9.0217
2023-04-19T01:03:27.889Z,9.0067
2023-04-19T01:04:29.734Z,8.9654
2023-04-19T01:05:31.153Z,9.0052
2023-04-19T01:06:32.508Z,9.0288
2023-04-19T01:07:33.944Z,9.1625
2023-04-19T01:08:35.309Z,9.0888
2023-04-19T01:09:36.708Z,9.1391
2023-04-19T01:10:38.045Z,9.0351
2023-04-19T01:11:40.782Z,9.0033
2023-04-19T01:12:41.436Z,9.0034
2023-04-19T01:13:42.803Z,8.9696
2023-04-19T01:14:44.202Z,8.9352
2023-04-19T01:15:45.620Z,8.9721
2023-04-19T01:16:46.995Z,8.9964
2023-04-19T01:17:48.399Z,8.9226
2023-04-19T01:18:49.808Z,8.8965
2023-04-19T01:19:51.202Z,8.8907
2023-04-19T01:20:52.589Z,8.9374
2023-04-19T01:21:54.038Z,8.9965
2023-04-19T01:22:55.393Z,8.9480
2023-04-19T01:23:56.973Z,8.8725
2023-04-19T01:24:58.365Z,8.9359
2023-04-19T01:25:59.885Z,8.9317
2023-04-19T01:27:01.317Z,8.9202
2023-04-19T01:28:02.814Z,8.9940
2023-04-19T01:29:04.230Z,8.9925
2023-04-19T01:30:05.573Z,8.9311
2023-04-19T01:31:06.960Z,8.9159
2023-04-19T01:32:08.277Z,8.9670
2023-04-19T01:33:09.618Z,8.9157
2023-04-19T01:34:10.983Z,8.9386
2023-04-19T01:35:12.328Z,8.9406
2023-04-19T01:36:13.673Z,9.0246
2023-04-19T01:37:15.010Z,9.0006
2023-04-19T01:38:16.497Z,8.9059
2023-04-19T01:39:18.870Z,8.9022
2023-04-19T01:40:20.301Z,8.9845
2023-04-19T01:41:21.643Z,8.9783
2023-04-19T01:42:23.101Z,8.9151
2023-04-19T01:43:24.522Z,8.9188
2023-04-19T01:44:25.913Z,8.8950
2023-04-19T01:45:27.315Z,8.9693
2023-04-19T01:46:28.888Z,8.9210
2023-04-19T01:47:30.308Z,8.8959
2023-04-19T01:48:31.758Z,8.8789
2023-04-19T01:49:33.146Z,8.9210
2023-04-19T01:50:34.591Z,8.9164
2023-04-19T01:51:36.013Z,8.8912
2023-04-19T01:52:37.485Z,8.8327
2023-04-19T01:53:38.920Z,8.8994
2023-04-19T01:54:40.287Z,8.8594
2023-04-19T01:55:41.742Z,8.8916
2023-04-19T01:56:43.209Z,8.8404
2023-04-19T01:57:44.609Z,8.9506
2023-04-19T01:58:46.057Z,8.8333
2023-04-19T01:59:47.430Z,8.8069
2023-04-19T02:00:48.919Z,8.7991
2023-04-19T02:01:50.348Z,8.8480
2023-04-19T02:02:51.989Z,8.8226
2023-04-19T02:03:53.598Z,8.8229
2023-04-19T02:04:55.526Z,8.8673
2023-04-19T02:05:56.963Z,8.8219
2023-04-19T02:06:58.431Z,8.8473
2023-04-19T02:07:59.876Z,8.8297
2023-04-19T02:09:01.258Z,8.8471
2023-04-19T02:10:02.773Z,8.8447
2023-04-19T02:11:04.221Z,8.8594
2023-04-19T02:12:05.623Z,8.8537
2023-04-19T02:13:07.139Z,8.8971
2023-04-19T02:14:08.542Z,8.8735
2023-04-19T02:15:09.969Z,8.8804
2023-04-19T02:16:11.550Z,8.8706
2023-04-19T02:17:13.037Z,8.9081
2023-04-19T02:18:14.423Z,8.9015
2023-04-19T02:19:15.875Z,8.8231
2023-04-19T02:20:17.299Z,8.8488
2023-04-19T02:21:18.724Z,8.8341
2023-04-19T02:22:20.147Z,8.9526
2023-04-19T02:23:21.608Z,8.9251
2023-04-19T02:24:23.014Z,8.9693
2023-04-19T02:25:24.467Z,8.9513
2023-04-19T02:26:26.030Z,8.8925
2023-04-19T02:27:27.489Z,8.8485
2023-04-19T02:28:28.888Z,8.8914
2023-04-19T02:29:30.382Z,8.9202
2023-04-19T02:30:31.858Z,8.9278
2023-04-19T02:31:33.300Z,8.8673
2023-04-19T02:32:34.790Z,8.8849
2023-04-19T02:33:36.127Z,8.8039
2023-04-19T02:34:37.599Z,8.8389
2023-04-19T02:35:38.966Z,8.8155
2023-04-19T02:36:40.347Z,8.8387
2023-04-19T02:37:41.829Z,8.8608
2023-04-19T02:38:43.190Z,8.8510
2023-04-19T02:39:44.595Z,8.8466
2023-04-19T02:40:46.035Z,8.8135
2023-04-19T02:41:47.558Z,8.8923
2023-04-19T02:42:48.963Z,8.9567
2023-04-19T02:43:50.411Z,8.9780
2023-04-19T02:44:51.995Z,8.9461
2023-04-19T02:45:53.476Z,8.9224
2023-04-19T02:46:54.893Z,9.0101
2023-04-19T02:47:56.369Z,8.9675
2023-04-19T02:48:57.939Z,8.9332
2023-04-19T02:49:59.328Z,8.9076
2023-04-19T02:51:00.773Z,8.8819
2023-04-19T02:52:02.241Z,8.8670
2023-04-19T02:53:03.785Z,8.8143
2023-04-19T02:54:05.273Z,8.8103
2023-04-19T02:55:06.659Z,8.8216
2023-04-19T02:56:08.073Z,8.8884
2023-04-19T02:57:09.526Z,8.9425
2023-04-19T02:58:10.921Z,8.8835
2023-04-19T02:59:12.370Z,8.9123
2023-04-19T03:00:13.861Z,8.9251
2023-04-19T03:01:15.643Z,8.9632
2023-04-19T03:02:17.118Z,8.9023
2023-04-19T03:03:18.593Z,8.8519
2023-04-19T03:04:19.998Z,8.8749
2023-04-19T03:05:21.445Z,8.8768
2023-04-19T03:06:22.858Z,8.7931
2023-04-19T03:07:24.378Z,8.8312
2023-04-19T03:08:25.799Z,8.8322
2023-04-19T03:09:27.227Z,8.8479
2023-04-19T03:10:28.685Z,8.8398
2023-04-19T03:11:30.091Z,8.8703
2023-04-19T03:12:31.473Z,8.8532
2023-04-19T03:13:32.968Z,8.8992
2023-04-19T03:14:34.362Z,8.8089
2023-04-19T03:15:35.815Z,8.8126
2023-04-19T03:16:37.252Z,8.7895
2023-04-19T03:17:38.697Z,8.7971
2023-04-19T03:18:40.131Z,8.8752
2023-04-19T03:19:41.609Z,8.8307
2023-04-19T03:20:43.058Z,8.8490
2023-04-19T03:21:44.519Z,8.8247
2023-04-19T03:22:45.982Z,8.7934
2023-04-19T03:23:47.380Z,8.7333
2023-04-19T03:24:48.787Z,8.8250
2023-04-19T03:25:50.250Z,8.7695
2023-04-19T03:26:51.725Z,8.7903
2023-04-19T03:27:53.155Z,8.7853
2023-04-19T03:28:54.660Z,8.8090
2023-04-19T03:29:56.179Z,8.8416
2023-04-19T03:30:57.676Z,8.8081
2023-04-19T03:31:59.113Z,8.7921
2023-04-19T03:33:00.520Z,8.8111
2023-04-19T03:34:01.940Z,8.7955
2023-04-19T03:35:03.348Z,8.8672
2023-04-19T03:36:04.797Z,8.8107
2023-04-19T03:37:06.190Z,8.8365
2023-04-19T03:38:07.632Z,8.8310
2023-04-19T03:39:09.082Z,8.8156
2023-04-19T03:40:10.503Z,8.8031
2023-04-19T03:41:11.949Z,8.7544
2023-04-19T03:42:13.420Z,8.7673
2023-04-19T03:43:14.839Z,8.8098
2023-04-19T03:44:16.432Z,8.8269
2023-04-19T03:45:18.194Z,8.9374
2023-04-19T03:46:19.649Z,8.8281
2023-04-19T03:47:21.253Z,8.8518
2023-04-19T03:48:22.837Z,8.8062
2023-04-19T03:49:24.294Z,8.7873
2023-04-19T03:50:25.737Z,8.7659
2023-04-19T03:51:27.158Z,8.7588
2023-04-19T03:52:28.567Z,8.8281
2023-04-19T03:53:29.970Z,8.8409
2023-04-19T03:54:31.375Z,8.7824
2023-04-19T03:55:32.841Z,8.8251
2023-04-19T03:56:34.438Z,8.8124
2023-04-19T03:57:35.863Z,8.7930
2023-04-19T03:58:37.381Z,8.8316
2023-04-19T03:59:38.800Z,8.8259
2023-04-19T04:00:40.258Z,8.8704
2023-04-19T04:01:41.895Z,8.8503
2023-04-19T04:02:43.837Z,8.8760
2023-04-19T04:03:45.634Z,8.8384
2023-04-19T04:04:47.486Z,8.8557
2023-04-19T04:05:48.929Z,8.8667
2023-04-19T04:06:50.406Z,8.8214
2023-04-19T04:07:51.808Z,8.8120
2023-04-19T04:08:53.199Z,8.8091
2023-04-19T04:09:54.618Z,8.7855
2023-04-19T04:10:56.026Z,8.8559
2023-04-19T04:11:57.410Z,8.8515
2023-04-19T04:12:58.899Z,8.9004
2023-04-19T04:14:00.392Z,8.8946
2023-04-19T04:15:01.863Z,8.8689
2023-04-19T04:16:03.290Z,8.8857
2023-04-19T04:17:04.716Z,8.8855
2023-04-19T04:18:08.566Z,8.8656
2023-04-19T04:19:07.910Z,8.8693
2023-04-19T04:20:09.328Z,8.8518
2023-04-19T04:21:10.717Z,8.8195
2023-04-19T04:22:12.163Z,8.8204
2023-04-19T04:23:13.566Z,8.8076
2023-04-19T04:24:15.144Z,8.8795
2023-04-19T04:25:16.686Z,8.8286
2023-04-19T04:26:18.086Z,8.8971
2023-04-19T04:27:19.584Z,8.9129
2023-04-19T04:28:21.274Z,8.8648
2023-04-19T04:29:22.735Z,8.8330
2023-04-19T04:30:26.554Z,8.7696
2023-04-19T04:31:24.258Z,8.7682
2023-04-19T04:32:25.750Z,8.8115
2023-04-19T04:33:27.232Z,8.8572
2023-04-19T04:34:28.724Z,8.8086
2023-04-19T04:35:30.199Z,8.8125
2023-04-19T04:36:31.645Z,8.8424
2023-04-19T04:37:33.084Z,8.8690
2023-04-19T04:38:34.576Z,8.8596
2023-04-19T04:39:35.978Z,8.8550
2023-04-19T04:40:37.383Z,8.8460
2023-04-19T04:41:38.828Z,8.8103
2023-04-19T04:42:40.295Z,8.8811
2023-04-19T04:43:41.944Z,8.9083
2023-04-19T04:44:43.381Z,8.8530
2023-04-19T04:45:44.862Z,8.8265
2023-04-19T04:46:46.331Z,8.8832
2023-04-19T04:47:47.806Z,8.8681
2023-04-19T04:48:49.279Z,8.8757
2023-04-19T04:49:50.696Z,8.8667
2023-04-19T04:50:52.113Z,8.8510
2023-04-19T04:51:53.560Z,8.7995
2023-04-19T04:52:54.972Z,8.7791
2023-04-19T04:53:56.516Z,8.7790
2023-04-19T04:54:57.978Z,8.8481
2023-04-19T04:55:59.672Z,8.8026
2023-04-19T04:57:01.189Z,8.8537
2023-04-19T04:58:02.614Z,8.8836
2023-04-19T04:59:04.000Z,8.8575
2023-04-19T05:00:05.435Z,8.8113
2023-04-19T05:01:06.888Z,8.8741
2023-04-19T05:02:08.469Z,8.9601
2023-04-19T05:03:10.060Z,8.9748
2023-04-19T05:04:11.587Z,9.0139
2023-04-19T05:05:13.086Z,8.9835
2023-04-19T05:06:14.501Z,8.9997
2023-04-19T05:07:16.173Z,9.0139
2023-04-19T05:08:17.594Z,8.9896
2023-04-19T05:09:18.998Z,9.0495
2023-04-19T05:10:20.457Z,9.0989
2023-04-19T05:11:21.885Z,9.0629
2023-04-19T05:12:23.367Z,9.0701
2023-04-19T05:13:24.829Z,9.0247
2023-04-19T05:14:26.280Z,8.9696
2023-04-19T05:15:27.709Z,9.0117
2023-04-19T05:16:29.310Z,9.0895
2023-04-19T05:17:30.825Z,9.0058
2023-04-19T05:18:32.213Z,8.9683
2023-04-19T05:19:33.654Z,8.9430
2023-04-19T05:20:35.089Z,8.9635
2023-04-19T05:21:36.577Z,8.9953
2023-04-19T05:22:37.978Z,8.9627
2023-04-19T05:23:39.453Z,8.9593
2023-04-19T05:24:42.375Z,9.0018
2023-04-19T05:25:41.485Z,8.8800
2023-04-19T05:26:42.883Z,8.8968
2023-04-19T05:27:44.308Z,8.8875
2023-04-19T05:28:45.754Z,8.8995
2023-04-19T05:29:47.175Z,8.9670
2023-04-19T05:30:48.660Z,8.9690
2023-04-19T05:31:50.101Z,9.0411
2023-04-19T05:32:51.554Z,9.0817
2023-04-19T05:33:53.047Z,9.0443
2023-04-19T05:34:54.529Z,9.0486
2023-04-19T05:35:55.947Z,9.0177
2023-04-19T05:36:57.397Z,9.0553
2023-04-19T05:37:58.821Z,9.0389
2023-04-19T05:39:00.220Z,9.0599
2023-04-19T05:40:01.667Z,9.0192
2023-04-19T05:41:03.048Z,8.9974
2023-04-19T05:42:04.462Z,9.0711
2023-04-19T05:43:05.870Z,8.9842
2023-04-19T05:44:07.281Z,9.0553
2023-04-19T05:45:08.679Z,9.0266
2023-04-19T05:46:10.165Z,9.0440
2023-04-19T05:47:11.596Z,9.0436
2023-04-19T05:48:12.987Z,9.1511
2023-04-19T05:49:14.450Z,9.1924
2023-04-19T05:50:15.845Z,9.2101
2023-04-19T05:51:17.284Z,9.1550
2023-04-19T05:52:18.686Z,9.0717
2023-04-19T05:53:20.097Z,9.0602
2023-04-19T05:54:21.505Z,9.1027
2023-04-19T05:55:23.009Z,9.1443
2023-04-19T05:56:24.440Z,9.1391
2023-04-19T05:57:25.825Z,9.0088
2023-04-19T05:58:27.254Z,9.0226
2023-04-19T05:59:28.683Z,9.0576
2023-04-19T06:00:30.083Z,9.0772
2023-04-19T06:01:31.514Z,9.0670
2023-04-19T06:02:33.133Z,9.0044
2023-04-19T06:03:34.953Z,9.0090
2023-04-19T06:04:37.375Z,9.0795
2023-04-19T06:05:39.378Z,9.0803
2023-04-19T06:06:40.801Z,9.0521
2023-04-19T06:07:47.246Z,8.9786
2023-04-19T06:08:44.282Z,9.0529
2023-04-19T06:09:45.693Z,9.0571
2023-04-19T06:10:54.510Z,9.1342
2023-04-19T06:11:51.201Z,9.1506
2023-04-19T06:12:50.518Z,9.2550
2023-04-19T06:13:51.970Z,9.1976
2023-04-19T06:14:53.399Z,9.1043
2023-04-19T06:15:54.919Z,9.2148
2023-04-19T06:16:56.304Z,9.1590
2023-04-19T06:17:59.776Z,9.2057
2023-04-19T06:18:58.881Z,9.2443
2023-04-19T06:20:00.365Z,9.2384
2023-04-19T06:21:01.775Z,9.2142
2023-04-19T06:22:03.194Z,9.1701
2023-04-19T06:23:04.614Z,9.2180
2023-04-19T06:24:06.076Z,9.2576
2023-04-19T06:25:07.521Z,9.2477
2023-04-19T06:26:09.047Z,9.2135
2023-04-19T06:27:10.479Z,9.1530
2023-04-19T06:28:11.882Z,9.1010
2023-04-19T06:29:13.277Z,9.1111
2023-04-19T06:30:14.706Z,9.1032
2023-04-19T06:31:16.099Z,9.1177
2023-04-19T06:32:17.580Z,9.1430
2023-04-19T06:33:18.995Z,9.1450
2023-04-19T06:34:20.412Z,9.1595
2023-04-19T06:35:21.811Z,9.1879
2023-04-19T06:36:23.239Z,9.2112
2023-04-19T06:37:24.691Z,9.2358
2023-04-19T06:38:26.130Z,9.2077
2023-04-19T06:39:27.548Z,9.2634
2023-04-19T06:40:29.036Z,9.2035
2023-04-19T06:41:30.530Z,9.1898
2023-04-19T06:42:31.982Z,9.2419
2023-04-19T06:43:33.398Z,9.2288
2023-04-19T06:44:34.943Z,9.1878
2023-04-19T06:45:36.456Z,9.2490
2023-04-19T06:46:37.894Z,9.2794
2023-04-19T06:47:39.366Z,9.3722
2023-04-19T06:48:40.803Z,9.3439
2023-04-19T06:49:42.369Z,9.3401
2023-04-19T06:50:43.835Z,9.3970
2023-04-19T06:51:45.278Z,9.3303
2023-04-19T06:52:46.751Z,9.2924
2023-04-19T06:53:48.202Z,9.3204
2023-04-19T06:54:49.816Z,9.2734
2023-04-19T06:55:51.261Z,9.3578
2023-04-19T06:56:52.727Z,9.3874
2023-04-19T06:57:54.229Z,9.3531
2023-04-19T06:58:55.680Z,9.4185
2023-04-19T06:59:57.154Z,9.4504
2023-04-19T07:00:58.674Z,9.3108
2023-04-19T07:02:00.213Z,9.3356
2023-04-19T07:03:01.869Z,9.3311
2023-04-19T07:04:03.874Z,9.4949
2023-04-19T07:05:06.093Z,9.4219
2023-04-19T07:06:07.519Z,9.4861
2023-04-19T07:07:08.942Z,9.5534
2023-04-19T07:08:10.394Z,9.5771
2023-04-19T07:09:11.836Z,9.3809
2023-04-19T07:10:13.318Z,9.3642
2023-04-19T07:11:14.756Z,9.3758
2023-04-19T07:12:16.266Z,9.3161
2023-04-19T07:13:17.718Z,9.3230
2023-04-19T07:14:19.334Z,9.3492
2023-04-19T07:15:20.797Z,9.3773
2023-04-19T07:16:22.464Z,9.3411
2023-04-19T07:17:24.010Z,9.3343
2023-04-19T07:18:25.565Z,9.3446
2023-04-19T07:19:27.059Z,9.3559
2023-04-19T07:20:28.720Z,9.4056
2023-04-19T07:21:30.248Z,9.4977
2023-04-19T07:22:31.774Z,9.4197
2023-04-19T07:23:33.243Z,9.5380
2023-04-19T07:24:34.663Z,9.5366
2023-04-19T07:25:36.125Z,9.5661
2023-04-19T07:26:37.630Z,9.6718
2023-04-19T07:27:39.043Z,9.6961
2023-04-19T07:28:40.509Z,9.6758
2023-04-19T07:29:41.989Z,9.5903
2023-04-19T07:30:43.450Z,9.5902
2023-04-19T07:31:44.947Z,9.4965
2023-04-19T07:32:46.555Z,9.4566
2023-04-19T07:33:48.094Z,9.4846
2023-04-19T07:34:49.561Z,9.5870
2023-04-19T07:35:51.221Z,9.7140
2023-04-19T07:36:52.714Z,9.6996
2023-04-19T07:37:57.264Z,9.6294
2023-04-19T07:38:58.901Z,9.7335
2023-04-19T07:40:01.238Z,9.5769
2023-04-19T07:41:02.751Z,9.5704
2023-04-19T07:42:04.259Z,9.5715
2023-04-19T07:43:05.796Z,9.7677
2023-04-19T07:44:07.356Z,9.7506
2023-04-19T07:45:08.809Z,9.7052
2023-04-19T07:46:10.299Z,9.6347
2023-04-19T07:47:11.758Z,9.7112
2023-04-19T07:48:13.251Z,9.8295
2023-04-19T07:49:14.713Z,9.7318
2023-04-19T07:50:16.297Z,9.7120
2023-04-19T07:51:17.831Z,9.6366
2023-04-19T07:52:19.272Z,9.7147
2023-04-19T07:53:20.721Z,9.6621
2023-04-19T07:54:22.137Z,9.7703
2023-04-19T07:55:23.648Z,9.6399
2023-04-19T07:56:25.091Z,9.6810
2023-04-19T07:57:26.618Z,9.6955
2023-04-19T07:58:28.090Z,9.7345
2023-04-19T07:59:29.602Z,9.8826
2023-04-19T08:00:31.023Z,9.7298
2023-04-19T08:01:32.840Z,9.7622
2023-04-19T08:02:34.787Z,9.7688
2023-04-19T08:03:36.481Z,9.7747
2023-04-19T08:04:38.548Z,9.7453
2023-04-19T08:05:40.417Z,9.6797
2023-04-19T08:06:41.975Z,9.6653
2023-04-19T08:07:43.478Z,9.6520
2023-04-19T08:08:44.930Z,9.6910
2023-04-19T08:09:46.476Z,9.7322
2023-04-19T08:10:47.932Z,9.7475
2023-04-19T08:11:49.447Z,9.8748
2023-04-19T08:14:04.558Z,9.8858
2023-04-19T08:15:02.661Z,9.9271
2023-04-19T08:17:22.050Z,9.9846
2023-04-19T08:18:01.119Z,9.9879
2023-04-19T08:19:02.608Z,10.0128
2023-04-19T08:20:04.100Z,10.0864
2023-04-19T08:21:05.538Z,9.9981
2023-04-19T08:22:07.014Z,9.9757
2023-04-19T08:23:20.363Z,9.9003
2023-04-19T08:24:10.483Z,9.9166
2023-04-19T08:25:11.900Z,10.0805
2023-04-19T08:26:13.378Z,10.0025
2023-04-19T08:27:14.881Z,10.0881
2023-04-19T08:28:16.354Z,10.0486
2023-04-19T08:29:17.945Z,10.1190
2023-04-19T08:30:19.595Z,10.2986
2023-04-19T08:31:21.056Z,10.3153
2023-04-19T08:32:22.552Z,10.2820
2023-04-19T08:33:24.040Z,10.3869
2023-04-19T08:34:25.469Z,10.2706
2023-04-19T08:35:26.908Z,10.1780
2023-04-19T08:36:37.104Z,10.2204
2023-04-19T08:37:30.451Z,10.2608
2023-04-19T08:38:31.975Z,10.2162
2023-04-19T08:39:34.262Z,10.2378
2023-04-19T08:40:33.545Z,10.2122
2023-04-19T08:41:34.999Z,10.2424
2023-04-19T08:42:37.249Z,10.2316
2023-04-19T08:43:40.486Z,10.3532
2023-04-19T08:44:53.795Z,10.3004
2023-04-19T08:45:43.007Z,10.3627
2023-04-19T08:46:44.421Z,10.3654
2023-04-19T08:47:58.665Z,10.3700
2023-04-19T08:48:47.942Z,10.3712
2023-04-19T08:49:56.300Z,10.5103
2023-04-19T08:51:04.446Z,10.3438
2023-04-19T08:51:53.494Z,10.3220
2023-04-19T08:52:59.053Z,10.2577
2023-04-19T08:53:56.975Z,10.3218
2023-04-19T08:54:58.471Z,10.2412
2023-04-19T08:56:10.023Z,10.3519
2023-04-19T08:57:01.958Z,10.4536
2023-04-19T08:58:04.197Z,10.3049
2023-04-19T08:59:19.253Z,10.3604
2023-04-19T09:00:06.619Z,10.4536
2023-04-19T09:01:08.301Z,10.4193
2023-04-19T09:02:08.733Z,10.4175
2023-04-19T09:03:10.646Z,10.1919
2023-04-19T09:05:13.378Z,10.1864
2023-04-19T09:06:15.293Z,10.1243
2023-04-19T09:07:16.842Z,10.1239
2023-04-19T09:08:18.297Z,10.1469
2023-04-19T09:10:21.576Z,10.2086
2023-04-19T09:11:23.085Z,10.2456
2023-04-19T09:12:24.537Z,10.3097
2023-04-19T09:13:26.032Z,10.3640
2023-04-19T09:14:27.467Z,10.3197
2023-04-19T09:15:28.940Z,10.3541
2023-04-19T09:16:30.414Z,10.4359
2023-04-19T09:17:31.888Z,10.6271
2023-04-19T09:18:35.933Z,10.6009
2023-04-19T09:19:35.372Z,10.9832
2023-04-19T09:20:36.840Z,11.1618
2023-04-19T09:21:38.270Z,11.1856
2023-04-19T09:22:39.684Z,11.0120
2023-04-19T09:23:41.148Z,11.0437
2023-04-19T09:26:06.280Z,11.0604
2023-04-19T09:26:46.233Z,11.0187
2023-04-19T09:27:47.669Z,10.9621
2023-04-19T09:28:49.081Z,10.9228
2023-04-19T09:29:50.496Z,10.9079
2023-04-19T09:31:00.668Z,10.9144
2023-04-19T09:31:54.092Z,10.7582
2023-04-19T09:32:55.568Z,10.6376
2023-04-19T09:33:56.983Z,10.6643
2023-04-19T09:34:58.454Z,10.7374
2023-04-19T09:35:59.902Z,10.7911
2023-04-19T09:37:12.177Z,10.8872
2023-04-19T09:38:06.721Z,10.8642
2023-04-19T09:39:05.934Z,10.9215
2023-04-19T09:40:07.381Z,10.9009
2023-04-19T09:41:08.800Z,10.9024
2023-04-19T09:42:10.260Z,11.1814
2023-04-19T09:44:50.198Z,11.0407
2023-04-19T09:46:17.344Z,11.1545
2023-04-19T09:47:18.716Z,10.9233
2023-04-19T09:48:20.159Z,11.0083
2023-04-19T09:49:33.547Z,10.9876
2023-04-19T09:50:27.288Z,10.9646
2023-04-19T09:51:23.753Z,11.1063
2023-04-19T09:52:25.150Z,11.0179
2023-04-19T09:53:26.528Z,11.0309
2023-04-19T09:54:27.941Z,10.9357
2023-04-19T09:55:31.721Z,10.9578
2023-04-19T09:56:31.350Z,10.9972
2023-04-19T09:57:32.766Z,11.0663
2023-04-19T09:59:35.919Z,10.8908
2023-04-19T10:00:47.996Z,10.9945
2023-04-19T10:01:39.368Z,10.9421
2023-04-19T10:02:40.949Z,11.0086
2023-04-19T10:03:42.619Z,11.2224
2023-04-19T10:05:46.317Z,11.1069
2023-04-19T10:07:07.403Z,11.0060
2023-04-19T10:07:49.874Z,11.0597
2023-04-19T10:08:51.621Z,11.0007
2023-04-19T10:09:55.023Z,10.8778
2023-04-19T10:10:55.236Z,11.0295
2023-04-19T10:12:03.764Z,11.1145
2023-04-19T10:13:15.891Z,11.2490
2023-04-19T10:14:00.900Z,11.1598
2023-04-19T10:15:02.313Z,11.1015
2023-04-19T10:16:15.502Z,11.1433
2023-04-19T10:17:05.794Z,11.1428
2023-04-19T10:18:07.413Z,11.1113
2023-04-19T10:19:10.054Z,11.1918
2023-04-19T10:20:09.224Z,11.0035
2023-04-19T10:21:10.608Z,11.0538
2023-04-19T10:22:11.990Z,11.0932
2023-04-19T10:23:13.487Z,11.1916
2023-04-19T10:24:14.893Z,11.1446
2023-04-19T10:25:16.356Z,11.1406
2023-04-19T10:26:17.765Z,11.2977
2023-04-19T10:27:19.216Z,11.2981
2023-04-19T10:28:20.647Z,11.3186
2023-04-19T10:29:22.074Z,11.3574
2023-04-19T10:30:23.517Z,11.2715
2023-04-19T10:31:24.912Z,11.5288
2023-04-19T10:32:26.380Z,11.4191
2023-04-19T10:33:27.898Z,11.5547
2023-04-19T10:34:29.350Z,11.4746
2023-04-19T10:35:30.753Z,11.6827
2023-04-19T10:36:32.189Z,11.4290
2023-04-19T10:37:33.793Z,11.3631
2023-04-19T10:38:35.329Z,11.3905
2023-04-19T10:39:36.794Z,11.5435
2023-04-19T10:40:38.178Z,11.5912
2023-04-19T10:41:39.654Z,11.4463
2023-04-19T10:42:41.037Z,11.3180
2023-04-19T10:43:42.477Z,11.2650
2023-04-19T10:44:43.866Z,11.1589
2023-04-19T10:45:45.313Z,11.1325
2023-04-19T10:46:46.707Z,11.1966
2023-04-19T10:47:48.195Z,11.1427
2023-04-19T10:48:49.701Z,10.9747
2023-04-19T10:49:51.181Z,10.8661
2023-04-19T10:50:52.634Z,11.0430
2023-04-19T10:51:54.059Z,10.9912
2023-04-19T10:52:55.484Z,11.0965
2023-04-19T10:53:56.940Z,11.0143
2023-04-19T10:54:58.374Z,11.0222
2023-04-19T10:55:59.779Z,11.1604
2023-04-19T10:57:01.201Z,11.0999
2023-04-19T10:58:02.602Z,11.1440
2023-04-19T10:59:04.036Z,11.1712
2023-04-19T11:00:05.471Z,11.2285
2023-04-19T11:01:06.889Z,11.0720
2023-04-19T11:02:08.395Z,11.1487
2023-04-19T11:03:10.086Z,11.1835
2023-04-19T11:04:11.902Z,11.3021
2023-04-19T11:05:13.603Z,11.1513
2023-04-19T11:06:15.014Z,11.2554
2023-04-19T11:07:16.386Z,11.2765
2023-04-19T11:08:17.799Z,11.3962
2023-04-19T11:09:19.260Z,11.2891
2023-04-19T11:10:20.719Z,11.4092
2023-04-19T11:11:22.143Z,11.4521
2023-04-19T11:12:23.597Z,11.4270
2023-04-19T11:13:25.039Z,11.5245
2023-04-19T11:14:26.493Z,11.5132
2023-04-19T11:15:27.969Z,11.4181
2023-04-19T11:16:42.434Z,11.4571
2023-04-19T11:17:31.598Z,11.5108
2023-04-19T11:18:33.301Z,11.5454
2023-04-19T11:19:34.683Z,11.5741
2023-04-19T11:20:36.157Z,11.4452
2023-04-19T11:21:37.554Z,11.4665
2023-04-19T11:22:39.052Z,11.1101
2023-04-19T11:23:40.455Z,11.1862
2023-04-19T11:24:41.873Z,11.5073
2023-04-19T11:25:43.296Z,11.7584
2023-04-19T11:26:44.752Z,11.7595
2023-04-19T11:27:46.230Z,11.8291
2023-04-19T11:28:47.680Z,11.8562
2023-04-19T11:29:49.135Z,11.7389
2023-04-19T11:30:50.622Z,11.8953
2023-04-19T11:31:52.137Z,11.9153
2023-04-19T11:32:53.666Z,11.9718
2023-04-19T11:33:55.439Z,11.7361
2023-04-19T11:34:57.069Z,11.8050
2023-04-19T11:35:58.509Z,11.9307
2023-04-19T11:36:59.938Z,11.7607
2023-04-19T11:38:01.428Z,11.8310
2023-04-19T11:39:02.898Z,11.8278
2023-04-19T11:40:05.104Z,11.6359
2023-04-19T11:41:06.908Z,11.4907
2023-04-19T11:42:08.340Z,11.4294
2023-04-19T11:43:09.710Z,11.5449
2023-04-19T11:44:11.159Z,11.5636
2023-04-19T11:45:25.897Z,11.5413
2023-04-19T11:46:14.737Z,11.4931
2023-04-19T11:47:16.251Z,11.2776
2023-04-19T11:48:17.888Z,11.3211
2023-04-19T11:49:19.348Z,11.4001
2023-04-19T11:50:20.831Z,11.5215
2023-04-19T11:51:22.460Z,11.4843
2023-04-19T11:52:23.913Z,11.6405
2023-04-19T11:53:25.371Z,11.4977
2023-04-19T11:54:26.854Z,11.5804
2023-04-19T11:55:28.272Z,11.5933
2023-04-19T11:56:29.732Z,11.7410
2023-04-19T11:57:31.183Z,11.7152
2023-04-19T11:58:32.617Z,11.6321
2023-04-19T11:59:34.064Z,11.7913
2023-04-19T12:00:35.524Z,11.8108
2023-04-19T12:01:36.918Z,11.7734
2023-04-19T12:02:38.610Z,11.7216
2023-04-19T12:03:40.335Z,11.9674
2023-04-19T12:04:42.205Z,11.9232
2023-04-19T12:05:44.146Z,11.8306
2023-04-19T12:06:45.666Z,11.7706
2023-04-19T12:07:47.124Z,12.0151
2023-04-19T12:08:48.575Z,12.1798
2023-04-19T12:09:50.032Z,12.0873
2023-04-19T12:10:51.519Z,12.2171
2023-04-19T12:11:52.940Z,12.1806
2023-04-19T12:12:54.383Z,12.0794
2023-04-19T12:13:55.813Z,11.7425
2023-04-19T12:14:57.289Z,11.6434
2023-04-19T12:15:58.758Z,11.8128
2023-04-19T12:17:00.322Z,11.8023
2023-04-19T12:18:01.876Z,11.7966
2023-04-19T12:19:03.476Z,11.7675
2023-04-19T12:20:05.027Z,11.8784
2023-04-19T12:21:06.465Z,11.9307
2023-04-19T12:22:07.921Z,11.7332
2023-04-19T12:23:09.401Z,11.6359
2023-04-19T12:24:10.918Z,11.6037
2023-04-19T12:25:12.404Z,11.6309
2023-04-19T12:26:13.839Z,11.6803
2023-04-19T12:27:15.359Z,11.5540
2023-04-19T12:28:16.836Z,11.6348
2023-04-19T12:29:18.385Z,11.4196
2023-04-19T12:30:19.836Z,11.5744
2023-04-19T12:31:21.250Z,11.5792
2023-04-19T12:32:22.733Z,11.5028
2023-04-19T12:33:24.240Z,11.4924
2023-04-19T12:34:25.687Z,11.5894
2023-04-19T12:35:27.174Z,11.5132
2023-04-19T12:36:28.688Z,11.3226
2023-04-19T12:37:30.153Z,11.3826
2023-04-19T12:38:31.615Z,11.3769
2023-04-19T12:39:33.129Z,11.2722
2023-04-19T12:40:34.789Z,11.3211
2023-04-19T12:41:36.278Z,11.2132
2023-04-19T12:42:37.730Z,10.9928
2023-04-19T12:43:39.199Z,10.9047
2023-04-19T12:44:40.697Z,10.9477
2023-04-19T12:45:42.256Z,10.8969
2023-04-19T12:46:43.785Z,11.0222
2023-04-19T12:47:45.290Z,11.1049
2023-04-19T12:48:46.814Z,11.0211